createdAt,value
2019-03-19T00:00:52.624Z,3.31
2019-03-19T00:01:52.610Z,3.34
2019-03-19T00:02:52.591Z,3.31
2019-03-19T00:03:52.581Z,3.34
2019-03-19T00:04:52.575Z,3.29
2019-03-19T00:05:52.553Z,3.41
2019-03-19T00:06:52.558Z,3.29
2019-03-19T00:07:52.535Z,3.23
2019-03-19T00:08:52.521Z,3.28
2019-03-19T00:09:52.510Z,3.34
2019-03-19T00:10:52.498Z,3.34
2019-03-19T00:11:52.509Z,3.22
2019-03-19T00:12:52.526Z,3.32
2019-03-19T00:13:52.468Z,3.25
2019-03-19T00:14:52.453Z,3.28
2019-03-19T00:15:52.449Z,3.21
2019-03-19T00:16:52.422Z,3.25
2019-03-19T00:17:52.438Z,3.22
2019-03-19T00:18:52.401Z,3.25
2019-03-19T00:19:52.390Z,3.16
2019-03-19T00:20:52.385Z,3.14
2019-03-19T00:21:52.360Z,3.18
2019-03-19T00:22:52.346Z,3.18
2019-03-19T00:23:52.339Z,3.07
2019-03-19T00:24:52.344Z,3.05
2019-03-19T00:25:53.252Z,3.08
2019-03-19T00:26:52.321Z,3.04
2019-03-19T00:27:52.293Z,3.07
2019-03-19T00:28:52.290Z,3.07
2019-03-19T00:29:52.265Z,3.10
2019-03-19T00:30:52.254Z,3.04
2019-03-19T00:31:52.246Z,3.01
2019-03-19T00:32:52.230Z,3.03
2019-03-19T00:33:52.235Z,3.05
2019-03-19T00:34:52.233Z,3.00
2019-03-19T00:35:52.189Z,3.08
2019-03-19T00:36:52.181Z,3.14
2019-03-19T00:37:52.180Z,3.07
2019-03-19T00:38:52.159Z,3.01
2019-03-19T00:39:52.148Z,3.07
2019-03-19T00:40:52.134Z,3.10
2019-03-19T00:41:52.123Z,3.04
2019-03-19T00:42:52.116Z,3.03
2019-03-19T00:43:52.092Z,3.10
2019-03-19T00:44:52.101Z,3.00
2019-03-19T00:45:52.074Z,3.07
2019-03-19T00:46:52.068Z,2.90
2019-03-19T00:47:52.051Z,2.92
2019-03-19T00:48:52.030Z,3.03
2019-03-19T00:49:52.065Z,2.98
2019-03-19T00:50:52.031Z,2.95
2019-03-19T00:51:51.998Z,2.97
2019-03-19T00:52:51.987Z,2.95
2019-03-19T00:53:51.981Z,2.95
2019-03-19T00:54:51.955Z,2.93
2019-03-19T00:55:51.956Z,2.87
2019-03-19T00:56:51.934Z,2.85
2019-03-19T00:57:51.920Z,2.87
2019-03-19T00:58:51.919Z,2.83
2019-03-19T00:59:51.901Z,2.89
2019-03-19T01:00:51.898Z,2.83
2019-03-19T01:01:51.884Z,2.77
2019-03-19T01:02:51.865Z,2.85
2019-03-19T01:03:51.849Z,2.74
2019-03-19T01:04:51.831Z,2.75
2019-03-19T01:05:51.832Z,2.77
2019-03-19T01:06:51.822Z,2.75
2019-03-19T01:07:51.813Z,2.72
2019-03-19T01:08:51.781Z,2.69
2019-03-19T01:09:51.777Z,2.69
2019-03-19T01:10:51.763Z,2.72
2019-03-19T01:11:51.758Z,2.68
2019-03-19T01:12:51.738Z,2.72
2019-03-19T01:13:51.736Z,2.75
2019-03-19T01:14:51.713Z,2.74
2019-03-19T01:15:51.698Z,2.64
2019-03-19T01:16:51.695Z,2.68
2019-03-19T01:17:51.673Z,2.65
2019-03-19T01:18:51.678Z,2.67
2019-03-19T01:19:51.652Z,2.65
2019-03-19T01:20:51.635Z,2.64
2019-03-19T01:21:51.633Z,2.67
2019-03-19T01:22:51.610Z,2.64
2019-03-19T01:23:51.606Z,2.61
2019-03-19T01:24:53.195Z,2.56
2019-03-19T01:25:55.591Z,2.54
2019-03-19T01:26:51.574Z,2.56
2019-03-19T01:27:51.576Z,2.56
2019-03-19T01:28:51.540Z,2.60
2019-03-19T01:29:51.530Z,2.57
2019-03-19T01:30:51.514Z,2.56
2019-03-19T01:31:51.499Z,2.57
2019-03-19T01:32:51.511Z,2.57
2019-03-19T01:33:51.475Z,2.61
2019-03-19T01:34:51.468Z,2.61
2019-03-19T01:35:51.450Z,2.56
2019-03-19T01:36:51.448Z,2.54
2019-03-19T01:37:54.186Z,2.53
2019-03-19T01:38:51.444Z,2.49
2019-03-19T01:39:51.401Z,2.56
2019-03-19T01:40:51.384Z,2.57
2019-03-19T01:41:51.380Z,2.56
2019-03-19T01:42:51.362Z,2.57
2019-03-19T01:43:51.352Z,2.53
2019-03-19T01:44:51.350Z,2.44
2019-03-19T01:45:51.331Z,2.47
2019-03-19T01:46:51.316Z,2.49
2019-03-19T01:47:51.311Z,2.47
2019-03-19T01:48:51.297Z,2.42
2019-03-19T01:49:51.305Z,2.36
2019-03-19T01:50:51.271Z,2.31
2019-03-19T01:51:51.254Z,2.36
2019-03-19T01:52:51.245Z,2.36
2019-03-19T01:53:51.227Z,2.35
2019-03-19T01:54:51.253Z,2.26
2019-03-19T01:55:51.203Z,2.36
2019-03-19T01:56:51.192Z,2.38
2019-03-19T01:57:51.181Z,2.42
2019-03-19T01:58:51.160Z,2.26
2019-03-19T01:59:51.164Z,2.39
2019-03-19T02:00:51.142Z,2.29
2019-03-19T02:01:51.124Z,2.26
2019-03-19T02:02:51.119Z,2.32
2019-03-19T02:03:51.126Z,2.33
2019-03-19T02:04:51.089Z,2.36
2019-03-19T02:05:51.092Z,2.35
2019-03-19T02:06:51.067Z,2.36
2019-03-19T02:07:51.086Z,2.39
2019-03-19T02:08:51.032Z,2.33
2019-03-19T02:09:51.038Z,2.18
2019-03-19T02:10:51.043Z,2.26
2019-03-19T02:11:51.010Z,2.29
2019-03-19T02:12:50.993Z,2.24
2019-03-19T02:13:50.978Z,2.26
2019-03-19T02:14:50.965Z,2.24
2019-03-19T02:15:50.968Z,2.25
2019-03-19T02:16:50.967Z,2.25
2019-03-19T02:17:50.971Z,2.17
2019-03-19T02:18:50.919Z,2.20
2019-03-19T02:19:50.903Z,2.14
2019-03-19T02:20:50.898Z,2.20
2019-03-19T02:21:50.883Z,2.20
2019-03-19T02:22:50.874Z,2.24
2019-03-19T02:23:50.853Z,2.20
2019-03-19T02:24:50.836Z,2.15
2019-03-19T02:25:50.823Z,2.20
2019-03-19T02:26:50.822Z,2.13
2019-03-19T02:27:50.819Z,2.10
2019-03-19T02:28:50.789Z,2.08
2019-03-19T02:29:50.772Z,2.10
2019-03-19T02:30:50.762Z,2.10
2019-03-19T02:31:50.759Z,2.14
2019-03-19T02:32:50.740Z,2.08
2019-03-19T02:33:50.734Z,2.08
2019-03-19T02:34:50.719Z,2.10
2019-03-19T02:35:50.704Z,2.24
2019-03-19T02:36:50.705Z,2.08
2019-03-19T02:37:50.672Z,2.10
2019-03-19T02:38:50.666Z,1.94
2019-03-19T02:39:50.652Z,2.00
2019-03-19T02:40:50.653Z,1.94
2019-03-19T02:41:50.638Z,2.10
2019-03-19T02:42:50.625Z,2.04
2019-03-19T02:43:50.605Z,2.04
2019-03-19T02:44:50.598Z,2.07
2019-03-19T02:45:50.572Z,1.99
2019-03-19T02:46:50.565Z,1.99
2019-03-19T02:47:50.561Z,2.00
2019-03-19T02:48:50.540Z,2.08
2019-03-19T02:49:50.529Z,2.08
2019-03-19T02:50:50.520Z,2.07
2019-03-19T02:51:50.502Z,2.00
2019-03-19T02:52:50.487Z,1.95
2019-03-19T02:53:50.478Z,2.02
2019-03-19T02:54:50.463Z,2.02
2019-03-19T02:55:50.454Z,2.04
2019-03-19T02:56:50.433Z,2.02
2019-03-19T02:57:50.422Z,2.04
2019-03-19T02:58:50.423Z,1.95
2019-03-19T02:59:50.415Z,1.95
2019-03-19T03:00:50.384Z,1.92
2019-03-19T03:01:50.373Z,1.92
2019-03-19T03:02:50.365Z,1.88
2019-03-19T03:03:50.365Z,1.87
2019-03-19T03:04:50.340Z,1.87
2019-03-19T03:05:50.325Z,1.89
2019-03-19T03:06:51.195Z,1.89
2019-03-19T03:07:50.327Z,1.87
2019-03-19T03:08:50.294Z,1.88
2019-03-19T03:09:50.270Z,1.88
2019-03-19T03:10:50.266Z,1.89
2019-03-19T03:11:50.267Z,1.91
2019-03-19T03:12:50.238Z,1.97
2019-03-19T03:13:50.225Z,1.95
2019-03-19T03:14:50.220Z,2.00
2019-03-19T03:15:50.195Z,1.91
2019-03-19T03:16:50.190Z,1.85
2019-03-19T03:17:50.176Z,1.88
2019-03-19T03:18:50.162Z,1.95
2019-03-19T03:19:50.158Z,1.99
2019-03-19T03:20:50.154Z,1.87
2019-03-19T03:21:50.125Z,1.94
2019-03-19T03:22:50.210Z,1.91
2019-03-19T03:23:50.096Z,1.91
2019-03-19T03:24:50.097Z,1.81
2019-03-19T03:25:50.080Z,1.97
2019-03-19T03:26:50.064Z,1.81
2019-03-19T03:27:50.058Z,1.97
2019-03-19T03:28:50.697Z,1.95
2019-03-19T03:29:50.021Z,1.77
2019-03-19T03:30:50.044Z,1.94
2019-03-19T03:31:50.005Z,1.87
2019-03-19T03:32:50.696Z,1.84
2019-03-19T03:33:50.704Z,1.81
2019-03-19T03:34:49.960Z,1.77
2019-03-19T03:35:49.970Z,1.81
2019-03-19T03:36:49.936Z,1.80
2019-03-19T03:37:49.956Z,1.74
2019-03-19T03:38:49.909Z,1.81
2019-03-19T03:39:49.889Z,1.77
2019-03-19T03:40:49.890Z,1.74
2019-03-19T03:41:49.868Z,1.78
2019-03-19T03:42:49.864Z,1.80
2019-03-19T03:43:49.855Z,1.73
2019-03-19T03:44:49.829Z,1.87
2019-03-19T03:45:49.841Z,1.71
2019-03-19T03:46:49.803Z,1.80
2019-03-19T03:47:49.803Z,1.71
2019-03-19T03:48:49.779Z,1.77
2019-03-19T03:49:49.763Z,1.74
2019-03-19T03:50:49.757Z,1.70
2019-03-19T03:51:49.741Z,1.74
2019-03-19T03:52:49.733Z,1.70
2019-03-19T03:53:49.717Z,1.73
2019-03-19T03:54:49.709Z,1.70
2019-03-19T03:55:49.697Z,1.68
2019-03-19T03:57:01.403Z,1.70
2019-03-19T03:57:49.679Z,1.71
2019-03-19T03:59:00.036Z,1.74
2019-03-19T03:59:49.636Z,1.59
2019-03-19T04:00:49.641Z,1.77
2019-03-19T04:01:49.626Z,1.67
2019-03-19T04:02:49.600Z,1.59
2019-03-19T04:03:49.593Z,1.66
2019-03-19T04:04:49.580Z,1.62
2019-03-19T04:05:49.582Z,1.63
2019-03-19T04:06:49.558Z,1.67
2019-03-19T04:07:49.559Z,1.63
2019-03-19T04:08:49.527Z,1.63
2019-03-19T04:09:49.516Z,1.63
2019-03-19T04:10:49.499Z,1.67
2019-03-19T04:11:49.520Z,1.74
2019-03-19T04:12:49.498Z,1.68
2019-03-19T04:13:49.463Z,1.62
2019-03-19T04:14:49.448Z,1.68
2019-03-19T04:15:49.442Z,1.63
2019-03-19T04:16:49.429Z,1.66
2019-03-19T04:17:49.409Z,1.66
2019-03-19T04:18:49.404Z,1.59
2019-03-19T04:19:49.383Z,1.58
2019-03-19T04:20:49.375Z,1.63
2019-03-19T04:21:49.358Z,1.63
2019-03-19T04:22:49.377Z,1.59
2019-03-19T04:23:49.328Z,1.68
2019-03-19T04:24:49.323Z,1.58
2019-03-19T04:25:49.305Z,1.59
2019-03-19T04:26:49.293Z,1.60
2019-03-19T04:27:49.311Z,1.60
2019-03-19T04:28:49.265Z,1.56
2019-03-19T04:29:49.256Z,1.56
2019-03-19T04:30:49.246Z,1.55
2019-03-19T04:31:49.235Z,1.56
2019-03-19T04:32:49.250Z,1.56
2019-03-19T04:33:49.200Z,1.56
2019-03-19T04:34:49.189Z,1.53
2019-03-19T04:35:49.176Z,1.53
2019-03-19T04:36:49.170Z,1.41
2019-03-19T04:37:49.714Z,1.50
2019-03-19T04:38:49.138Z,1.56
2019-03-19T04:39:49.136Z,1.56
2019-03-19T04:40:49.706Z,1.49
2019-03-19T04:41:49.102Z,1.55
2019-03-19T04:42:49.084Z,1.55
2019-03-19T04:43:49.082Z,1.52
2019-03-19T04:44:49.058Z,1.40
2019-03-19T04:45:49.047Z,1.44
2019-03-19T04:46:49.034Z,1.41
2019-03-19T04:47:49.046Z,1.45
2019-03-19T04:48:49.020Z,1.41
2019-03-19T04:49:48.991Z,1.48
2019-03-19T04:50:48.988Z,1.44
2019-03-19T04:51:48.982Z,1.49
2019-03-19T04:52:48.959Z,1.45
2019-03-19T04:53:48.970Z,1.40
2019-03-19T04:54:48.929Z,1.49
2019-03-19T04:55:48.921Z,1.44
2019-03-19T04:56:48.906Z,1.53
2019-03-19T04:57:48.894Z,1.53
2019-03-19T04:58:48.893Z,1.42
2019-03-19T04:59:48.866Z,1.40
2019-03-19T05:00:48.861Z,1.42
2019-03-19T05:01:48.842Z,1.45
2019-03-19T05:02:48.845Z,1.42
2019-03-19T05:03:48.816Z,1.44
2019-03-19T05:04:48.810Z,1.42
2019-03-19T05:05:48.789Z,1.40
2019-03-19T05:06:48.777Z,1.42
2019-03-19T05:07:48.766Z,1.42
2019-03-19T05:08:48.753Z,1.44
2019-03-19T05:09:48.738Z,1.41
2019-03-19T05:10:48.725Z,1.37
2019-03-19T05:11:48.710Z,1.37
2019-03-19T05:12:48.711Z,1.34
2019-03-19T05:13:48.685Z,1.34
2019-03-19T05:14:48.691Z,1.30
2019-03-19T05:15:48.669Z,1.30
2019-03-19T05:16:48.665Z,1.32
2019-03-19T05:17:48.641Z,1.31
2019-03-19T05:18:48.617Z,1.28
2019-03-19T05:19:48.631Z,1.32
2019-03-19T05:20:48.625Z,1.31
2019-03-19T05:21:48.588Z,1.30
2019-03-19T05:22:48.572Z,1.35
2019-03-19T05:23:48.554Z,1.34
2019-03-19T05:24:48.556Z,1.28
2019-03-19T05:25:48.539Z,1.32
2019-03-19T05:26:48.516Z,1.34
2019-03-19T05:27:48.509Z,1.32
2019-03-19T05:28:48.493Z,1.31
2019-03-19T05:29:48.476Z,1.20
2019-03-19T05:30:48.466Z,1.31
2019-03-19T05:31:48.470Z,1.37
2019-03-19T05:32:56.199Z,1.31
2019-03-19T05:34:49.630Z,1.31
2019-03-19T05:35:41.912Z,1.22
2019-03-19T05:37:45.876Z,1.31
2019-03-19T05:38:35.342Z,1.31
2019-03-19T05:39:35.343Z,1.31
2019-03-19T05:40:35.296Z,1.28
2019-03-19T05:41:35.284Z,1.20
2019-03-19T05:42:35.267Z,1.22
2019-03-19T05:43:35.288Z,1.31
2019-03-19T05:44:35.250Z,1.23
2019-03-19T05:45:35.238Z,1.26
2019-03-19T05:46:35.220Z,1.24
2019-03-19T05:47:38.202Z,1.30
2019-03-19T05:48:35.221Z,1.20
2019-03-19T05:49:35.186Z,1.24
2019-03-19T05:50:35.174Z,1.28
2019-03-19T05:51:35.154Z,1.26
2019-03-19T05:52:35.142Z,1.24
2019-03-19T05:53:35.121Z,1.22
2019-03-19T05:54:35.109Z,1.20
2019-03-19T05:55:35.126Z,1.31
2019-03-19T05:56:35.092Z,1.22
2019-03-19T05:57:35.071Z,1.28
2019-03-19T05:58:35.074Z,1.31
2019-03-19T05:59:35.055Z,1.31
2019-03-19T06:00:35.035Z,1.30
2019-03-19T06:01:35.022Z,1.28
2019-03-19T06:02:35.047Z,1.26
2019-03-19T06:03:34.997Z,1.40
2019-03-19T06:04:35.001Z,1.32
2019-03-19T06:05:34.983Z,1.34
2019-03-19T06:06:34.957Z,1.37
2019-03-19T06:07:34.943Z,1.35
2019-03-19T06:08:34.924Z,1.41
2019-03-19T06:09:34.931Z,1.42
2019-03-19T06:10:34.903Z,1.37
2019-03-19T06:11:34.892Z,1.44
2019-03-19T06:12:34.886Z,1.40
2019-03-19T06:13:34.877Z,1.42
2019-03-19T06:14:34.851Z,1.38
2019-03-19T06:15:34.843Z,1.41
2019-03-19T06:16:34.826Z,1.44
2019-03-19T06:17:34.818Z,1.40
2019-03-19T06:18:35.626Z,1.44
2019-03-19T06:19:34.793Z,1.44
2019-03-19T06:20:34.777Z,1.58
2019-03-19T06:21:34.765Z,1.52
2019-03-19T06:22:34.785Z,1.53
2019-03-19T06:23:34.741Z,1.58
2019-03-19T06:24:34.730Z,1.60
2019-03-19T06:25:34.727Z,1.59
2019-03-19T06:26:34.698Z,1.63
2019-03-19T06:27:34.702Z,1.55
2019-03-19T06:28:35.672Z,1.62
2019-03-19T06:29:34.675Z,1.59
2019-03-19T06:30:34.653Z,1.55
2019-03-19T06:31:34.648Z,1.63
2019-03-19T06:32:34.630Z,1.71
2019-03-19T06:33:34.616Z,1.73
2019-03-19T06:34:34.607Z,1.76
2019-03-19T06:35:34.592Z,1.74
2019-03-19T06:36:34.576Z,1.68
2019-03-19T06:37:34.567Z,1.73
2019-03-19T06:38:34.551Z,1.85
2019-03-19T06:39:34.540Z,1.74
2019-03-19T06:40:34.532Z,1.77
2019-03-19T06:41:34.525Z,1.80
2019-03-19T06:42:35.333Z,1.81
2019-03-19T06:43:34.497Z,1.81
2019-03-19T06:44:34.480Z,1.81
2019-03-19T06:45:34.481Z,1.84
2019-03-19T06:46:34.491Z,1.77
2019-03-19T06:47:34.477Z,1.80
2019-03-19T06:48:34.439Z,1.97
2019-03-19T06:49:34.437Z,1.89
2019-03-19T06:50:44.436Z,1.89
2019-03-19T06:51:34.468Z,1.97
2019-03-19T06:52:34.403Z,1.97
2019-03-19T06:53:34.375Z,1.97
2019-03-19T06:54:34.357Z,2.00
2019-03-19T06:55:34.349Z,2.07
2019-03-19T06:56:34.345Z,2.07
2019-03-19T06:57:39.137Z,2.07
2019-03-19T06:58:35.852Z,2.26
2019-03-19T06:59:34.315Z,2.17
2019-03-19T07:00:34.300Z,2.33
2019-03-19T07:01:34.279Z,2.36
2019-03-19T07:02:34.265Z,2.42
2019-03-19T07:03:34.255Z,2.54
2019-03-19T07:04:34.258Z,2.56
2019-03-19T07:05:34.234Z,2.67
2019-03-19T07:06:34.224Z,2.64
2019-03-19T07:07:34.227Z,2.71
2019-03-19T07:08:34.221Z,2.75
2019-03-19T07:09:34.196Z,2.69
2019-03-19T07:10:34.174Z,2.79
2019-03-19T07:11:34.198Z,2.75
2019-03-19T07:12:34.153Z,2.74
2019-03-19T07:13:34.144Z,2.85
2019-03-19T07:14:34.132Z,2.87
2019-03-19T07:15:34.127Z,2.89
2019-03-19T07:16:34.113Z,2.90
2019-03-19T07:17:34.099Z,2.97
2019-03-19T07:18:34.100Z,3.08
2019-03-19T07:19:34.077Z,3.19
2019-03-19T07:20:34.062Z,3.18
2019-03-19T07:21:34.057Z,3.28
2019-03-19T07:22:34.043Z,3.26
2019-03-19T07:23:49.962Z,3.31
2019-03-19T07:24:34.037Z,3.41
2019-03-19T07:25:34.015Z,3.44
2019-03-19T07:26:34.316Z,3.44
2019-03-19T07:27:33.987Z,3.50
2019-03-19T07:28:33.987Z,3.53
2019-03-19T07:29:34.868Z,3.51
2019-03-19T07:30:33.968Z,3.53
2019-03-19T07:31:33.942Z,3.63
2019-03-19T07:32:33.938Z,3.60
2019-03-19T07:33:33.923Z,3.73
2019-03-19T07:34:33.959Z,3.74
2019-03-19T07:35:33.924Z,3.70
2019-03-19T07:36:33.925Z,3.77
2019-03-19T07:37:33.880Z,3.70
2019-03-19T07:38:33.880Z,3.70
2019-03-19T07:39:33.897Z,3.76
2019-03-19T07:40:33.849Z,3.73
2019-03-19T07:41:33.845Z,3.73
2019-03-19T07:42:33.856Z,3.74
2019-03-19T07:43:33.814Z,3.88
2019-03-19T07:44:33.818Z,3.87
2019-03-19T07:45:33.798Z,3.91
2019-03-19T07:46:33.841Z,3.78
2019-03-19T07:47:33.778Z,3.91
2019-03-19T07:48:33.768Z,3.91
2019-03-19T07:49:33.757Z,3.88
2019-03-19T07:50:33.752Z,4.05
2019-03-19T07:51:33.736Z,4.02
2019-03-19T07:52:33.729Z,4.05
2019-03-19T07:53:33.723Z,4.08
2019-03-19T07:54:33.706Z,4.06
2019-03-19T07:55:33.694Z,4.16
2019-03-19T07:56:33.683Z,4.10
2019-03-19T07:57:33.670Z,4.20
2019-03-19T07:58:44.762Z,4.23
2019-03-19T07:59:33.656Z,4.24
2019-03-19T08:00:33.641Z,4.50
2019-03-19T08:01:33.627Z,4.56
2019-03-19T08:02:33.621Z,4.62
2019-03-19T08:03:33.605Z,4.86
2019-03-19T08:04:33.597Z,4.94
2019-03-19T08:05:33.658Z,5.00
2019-03-19T08:06:33.609Z,4.93
2019-03-19T08:07:33.565Z,5.07
2019-03-19T08:08:33.561Z,5.02
2019-03-19T08:09:33.591Z,5.02
2019-03-19T08:10:33.533Z,5.12
2019-03-19T08:11:33.530Z,5.14
2019-03-19T08:12:33.780Z,5.21
2019-03-19T08:13:33.508Z,5.26
2019-03-19T08:14:34.382Z,5.36
2019-03-19T08:15:33.546Z,5.47
2019-03-19T08:16:33.478Z,5.57
2019-03-19T08:17:33.468Z,5.56
2019-03-19T08:18:35.980Z,5.64
2019-03-19T08:19:33.450Z,5.68
2019-03-19T08:20:33.444Z,5.66
2019-03-19T08:21:33.424Z,5.89
2019-03-19T08:22:33.417Z,5.84
2019-03-19T08:23:33.408Z,5.99
2019-03-19T08:24:33.400Z,6.12
2019-03-19T08:25:41.904Z,6.17
2019-03-19T08:30:55.255Z,6.30
2019-03-19T08:31:40.693Z,6.24
2019-03-19T08:33:39.205Z,6.36
2019-03-19T08:34:36.293Z,6.28
2019-03-19T08:36:49.760Z,6.31
2019-03-19T08:37:28.257Z,6.30
2019-03-19T08:39:23.890Z,6.46
2019-03-19T08:40:29.478Z,6.45
2019-03-19T08:42:25.757Z,6.74
2019-03-19T08:43:16.683Z,6.72
2019-03-19T08:44:15.158Z,6.70
2019-03-19T08:45:15.152Z,6.92
2019-03-19T08:46:15.148Z,6.95
2019-03-19T08:47:15.135Z,7.10
2019-03-19T08:48:15.122Z,7.33
2019-03-19T08:49:15.130Z,7.54
2019-03-19T08:50:15.107Z,7.88
2019-03-19T08:51:15.100Z,8.08
2019-03-19T08:52:15.094Z,8.45
2019-03-19T08:53:15.087Z,8.56
2019-03-19T08:54:15.076Z,8.87
2019-03-19T08:55:15.073Z,9.22
2019-03-19T08:56:15.057Z,9.14
2019-03-19T08:57:15.051Z,9.19
2019-03-19T08:58:15.050Z,9.37
2019-03-19T08:59:15.060Z,9.51
2019-03-19T09:00:15.035Z,9.69
2019-03-19T09:01:15.025Z,9.84
2019-03-19T09:02:15.049Z,9.97
2019-03-19T09:03:15.028Z,10.12
2019-03-19T09:04:15.013Z,10.02
2019-03-19T09:05:15.009Z,9.92
2019-03-19T09:06:15.001Z,9.62
2019-03-19T09:07:15.002Z,9.76
2019-03-19T09:08:14.992Z,9.86
2019-03-19T09:09:14.987Z,10.19
2019-03-19T09:10:14.979Z,10.17
2019-03-19T09:11:14.982Z,10.19
2019-03-19T09:12:14.977Z,10.30
2019-03-19T09:13:14.974Z,10.49
2019-03-19T09:14:14.976Z,10.54
2019-03-19T09:15:14.968Z,10.53
2019-03-19T09:16:14.968Z,10.78
2019-03-19T09:17:14.960Z,10.93
2019-03-19T09:18:16.103Z,11.18
2019-03-19T09:19:14.956Z,11.26
2019-03-19T09:20:14.959Z,11.48
2019-03-19T09:21:14.948Z,11.66
2019-03-19T09:22:15.220Z,11.87
2019-03-19T09:23:14.951Z,12.02
2019-03-19T09:24:14.955Z,12.24
2019-03-19T09:25:14.949Z,12.37
2019-03-19T09:26:14.946Z,12.40
2019-03-19T09:27:14.945Z,12.27
2019-03-19T09:28:14.938Z,12.03
2019-03-19T09:29:17.016Z,11.63
2019-03-19T09:30:14.939Z,11.32
2019-03-19T09:31:14.951Z,11.36
2019-03-19T09:32:14.935Z,11.41
2019-03-19T09:33:14.942Z,11.62
2019-03-19T09:34:14.943Z,11.65
2019-03-19T09:35:14.944Z,11.69
2019-03-19T09:36:14.943Z,11.87
2019-03-19T09:37:14.943Z,11.90
2019-03-19T09:38:14.938Z,11.99
2019-03-19T09:39:14.937Z,11.95
2019-03-19T09:40:14.935Z,11.90
2019-03-19T09:41:14.934Z,11.99
2019-03-19T09:42:14.931Z,11.77
2019-03-19T09:43:14.939Z,11.55
2019-03-19T09:44:14.941Z,11.36
2019-03-19T09:45:14.926Z,11.08
2019-03-19T09:46:14.929Z,10.69
2019-03-19T09:47:14.929Z,10.34
2019-03-19T09:48:14.933Z,10.19
2019-03-19T09:49:14.933Z,10.09
2019-03-19T09:50:14.975Z,10.12
2019-03-19T09:51:14.920Z,10.12
2019-03-19T09:52:14.921Z,10.28
2019-03-19T09:53:14.918Z,10.60
2019-03-19T09:54:14.909Z,10.74
2019-03-19T09:55:14.901Z,10.97
2019-03-19T09:56:14.905Z,11.18
2019-03-19T09:57:14.917Z,11.32
2019-03-19T09:58:14.897Z,11.50
2019-03-19T09:59:14.915Z,11.50
2019-03-19T10:00:14.888Z,11.55
2019-03-19T10:01:14.890Z,11.43
2019-03-19T10:02:14.888Z,11.41
2019-03-19T10:03:14.885Z,11.44
2019-03-19T10:04:14.884Z,11.37
2019-03-19T10:05:14.889Z,11.33
2019-03-19T10:06:14.876Z,11.19
2019-03-19T10:07:14.870Z,11.19
2019-03-19T10:08:14.871Z,11.05
2019-03-19T10:09:14.871Z,10.84
2019-03-19T10:10:14.875Z,10.67
2019-03-19T10:11:14.851Z,10.75
2019-03-19T10:12:14.891Z,10.78
2019-03-19T10:13:15.148Z,10.84
2019-03-19T10:14:15.741Z,10.93
2019-03-19T10:15:14.855Z,10.94
2019-03-19T10:16:14.839Z,11.11
2019-03-19T10:17:14.824Z,11.00
2019-03-19T10:18:14.819Z,10.82
2019-03-19T10:19:14.817Z,10.74
2019-03-19T10:20:14.807Z,10.67
2019-03-19T10:21:14.803Z,10.67
2019-03-19T10:22:15.304Z,10.56
2019-03-19T10:23:14.796Z,10.54
2019-03-19T10:24:14.791Z,10.53
2019-03-19T10:25:14.796Z,10.46
2019-03-19T10:26:14.786Z,10.42
2019-03-19T10:27:14.785Z,10.64
2019-03-19T10:28:14.783Z,10.90
2019-03-19T10:29:14.767Z,11.08
2019-03-19T10:30:14.770Z,11.45
2019-03-19T10:31:14.756Z,11.63
2019-03-19T10:32:14.759Z,11.90
2019-03-19T10:33:15.977Z,12.20
2019-03-19T10:34:14.753Z,12.50
2019-03-19T10:35:14.738Z,12.73
2019-03-19T10:36:14.739Z,12.93
2019-03-19T10:37:14.742Z,13.16
2019-03-19T10:38:14.737Z,13.16
2019-03-19T10:39:14.740Z,13.15
2019-03-19T10:40:14.732Z,13.09
2019-03-19T10:41:14.732Z,13.03
2019-03-19T10:42:14.728Z,12.67
2019-03-19T10:43:14.739Z,12.47
2019-03-19T10:44:14.744Z,12.35
2019-03-19T10:45:14.744Z,12.53
2019-03-19T10:46:14.935Z,12.62
2019-03-19T10:47:14.729Z,12.91
2019-03-19T10:48:14.719Z,13.05
2019-03-19T10:49:14.721Z,13.33
2019-03-19T10:50:14.713Z,13.65
2019-03-19T10:51:14.714Z,13.87
2019-03-19T10:52:14.719Z,13.99
2019-03-19T10:53:14.714Z,14.11
2019-03-19T10:54:14.721Z,14.20
2019-03-19T10:55:14.711Z,14.23
2019-03-19T10:56:14.718Z,14.17
2019-03-19T10:57:14.716Z,14.28
2019-03-19T10:58:14.707Z,14.40
2019-03-19T10:59:14.705Z,14.35
2019-03-19T11:00:14.712Z,14.33
2019-03-19T11:01:14.727Z,14.45
2019-03-19T11:02:14.786Z,14.55
2019-03-19T11:03:14.724Z,14.53
2019-03-19T11:04:14.724Z,14.58
2019-03-19T11:05:14.713Z,14.62
2019-03-19T11:06:14.730Z,14.70
2019-03-19T11:07:15.390Z,14.62
2019-03-19T11:08:14.723Z,14.55
2019-03-19T11:09:14.719Z,14.59
2019-03-19T11:10:14.723Z,14.70
2019-03-19T11:11:14.749Z,14.88
2019-03-19T11:12:14.757Z,15.00
2019-03-19T11:13:14.727Z,15.14
2019-03-19T11:14:14.738Z,15.03
2019-03-19T11:15:14.733Z,15.02
2019-03-19T11:16:14.743Z,14.92
2019-03-19T11:17:14.743Z,14.89
2019-03-19T11:18:14.738Z,15.02
2019-03-19T11:19:14.739Z,14.91
2019-03-19T11:20:14.738Z,14.97
2019-03-19T11:21:14.746Z,14.94
2019-03-19T11:22:14.743Z,14.94
2019-03-19T11:23:14.743Z,15.03
2019-03-19T11:24:14.795Z,15.02
2019-03-19T11:25:14.749Z,15.03
2019-03-19T11:26:15.294Z,14.86
2019-03-19T11:27:14.754Z,14.63
2019-03-19T11:28:14.747Z,14.37
2019-03-19T11:29:14.748Z,14.23
2019-03-19T11:30:14.781Z,14.12
2019-03-19T11:31:14.755Z,14.12
2019-03-19T11:32:14.744Z,14.15
2019-03-19T11:33:14.754Z,14.22
2019-03-19T11:34:14.749Z,14.25
2019-03-19T11:35:14.755Z,14.59
2019-03-19T11:36:14.760Z,14.69
2019-03-19T11:37:14.761Z,14.65
2019-03-19T11:38:14.759Z,14.79
2019-03-19T11:39:14.749Z,14.82
2019-03-19T11:40:14.753Z,14.89
2019-03-19T11:41:14.757Z,14.96
2019-03-19T11:42:14.752Z,14.92
2019-03-19T11:43:14.763Z,15.04
2019-03-19T11:44:14.748Z,14.96
2019-03-19T11:45:14.755Z,14.92
2019-03-19T11:46:14.759Z,15.03
2019-03-19T11:47:14.755Z,15.07
2019-03-19T11:48:14.756Z,15.03
2019-03-19T11:49:14.756Z,15.11
2019-03-19T11:50:14.760Z,15.18
2019-03-19T11:51:14.769Z,15.07
2019-03-19T11:52:14.766Z,15.02
2019-03-19T11:53:14.765Z,15.00
2019-03-19T11:54:14.769Z,14.81
2019-03-19T11:55:14.781Z,14.69
2019-03-19T11:56:14.773Z,14.59
2019-03-19T11:57:14.806Z,14.36
2019-03-19T11:58:14.769Z,14.29
2019-03-19T11:59:14.803Z,14.37
2019-03-19T12:00:14.774Z,14.54
2019-03-19T12:01:14.760Z,14.68
2019-03-19T12:02:25.381Z,14.70
2019-03-19T12:03:16.304Z,14.97
2019-03-19T12:04:14.770Z,15.06
2019-03-19T12:05:14.781Z,15.02
2019-03-19T12:06:14.788Z,15.06
2019-03-19T12:07:14.776Z,15.39
2019-03-19T12:08:14.767Z,15.36
2019-03-19T12:09:14.772Z,15.42
2019-03-19T12:10:14.774Z,15.76
2019-03-19T12:11:14.776Z,15.72
2019-03-19T12:12:14.785Z,15.86
2019-03-19T12:13:14.781Z,15.79
2019-03-19T12:14:14.814Z,15.86
2019-03-19T12:15:14.839Z,15.82
2019-03-19T12:16:14.784Z,15.58
2019-03-19T12:17:14.786Z,15.61
2019-03-19T12:18:14.794Z,15.44
2019-03-19T12:19:14.797Z,15.28
2019-03-19T12:20:14.809Z,15.19
2019-03-19T12:21:15.330Z,15.40
2019-03-19T12:22:14.799Z,15.21
2019-03-19T12:23:14.797Z,15.03
2019-03-19T12:24:14.808Z,15.04
2019-03-19T12:25:14.800Z,15.25
2019-03-19T12:26:14.810Z,15.18
2019-03-19T12:27:14.807Z,15.33
2019-03-19T12:28:14.810Z,15.59
2019-03-19T12:29:14.809Z,15.73
2019-03-19T12:30:22.082Z,15.80
2019-03-19T12:31:14.822Z,15.83
2019-03-19T12:32:14.826Z,15.72
2019-03-19T12:33:14.823Z,15.65
2019-03-19T12:34:14.827Z,15.62
2019-03-19T12:35:14.837Z,15.61
2019-03-19T12:36:14.844Z,15.54
2019-03-19T12:37:14.838Z,15.64
2019-03-19T12:38:14.840Z,15.80
2019-03-19T12:39:14.914Z,15.91
2019-03-19T12:40:14.836Z,16.01
2019-03-19T12:41:14.838Z,15.90
2019-03-19T12:42:14.838Z,16.04
2019-03-19T12:43:14.847Z,16.21
2019-03-19T12:44:14.846Z,16.13
2019-03-19T12:45:14.849Z,16.04
2019-03-19T12:46:14.878Z,16.24
2019-03-19T12:47:14.855Z,16.09
2019-03-19T12:48:14.913Z,16.09
2019-03-19T12:49:14.859Z,15.94
2019-03-19T12:50:14.863Z,15.76
2019-03-19T12:51:14.863Z,15.72
2019-03-19T12:52:14.863Z,15.61
2019-03-19T12:53:14.896Z,15.37
2019-03-19T12:54:14.865Z,15.33
2019-03-19T12:55:16.879Z,15.28
2019-03-19T12:56:14.872Z,15.14
2019-03-19T12:57:14.879Z,15.19
2019-03-19T12:58:14.884Z,15.19
2019-03-19T12:59:20.116Z,15.09
2019-03-19T13:00:14.928Z,15.11
2019-03-19T13:01:15.004Z,14.88
2019-03-19T13:02:14.860Z,14.96
2019-03-19T13:03:14.865Z,14.86
2019-03-19T13:04:14.867Z,14.92
2019-03-19T13:05:14.863Z,14.89
2019-03-19T13:06:14.867Z,14.89
2019-03-19T13:07:14.863Z,14.89
2019-03-19T13:08:14.860Z,14.82
2019-03-19T13:09:14.860Z,14.84
2019-03-19T13:10:14.864Z,14.89
2019-03-19T13:11:14.854Z,14.69
2019-03-19T13:12:14.860Z,14.66
2019-03-19T13:13:14.869Z,14.58
2019-03-19T13:14:14.850Z,14.82
2019-03-19T13:15:14.845Z,14.79
2019-03-19T13:16:14.849Z,15.00
2019-03-19T13:17:14.879Z,15.11
2019-03-19T13:18:14.853Z,15.25
2019-03-19T13:19:14.842Z,15.09
2019-03-19T13:20:14.846Z,15.19